Time;durP1;ratioP1;P1;durP2;ratioP2;P2;SDS_P1;SDS_P2;PMS_P1;PMS_P2;Temp;Humidity;BMP_temperature;BMP_pressure;BME280_temperature;BME280_humidity;BME280_pressure;Samples;Min_cycle;Max_cycle;Signal;HPM_P1;HPM_P2
2023/03/02 00:02:21;;;;;;;43.67;19.63;;;0.10;99.90;;;;;;5049185;28;20187;-72
2023/03/02 00:04:50;;;;;;;37.83;20.20;;;0.10;99.90;;;;;;5049336;28;20180;-71
2023/03/02 00:07:28;;;;;;;36.70;19.85;;;0.00;99.90;;;;;;5049275;28;20211;-71
2023/03/02 00:09:54;;;;;;;32.25;20.45;;;0.00;99.90;;;;;;5049281;28;20184;-71
2023/03/02 00:12:19;;;;;;;40.80;20.43;;;0.00;99.90;;;;;;5049452;28;20187;-71
2023/03/02 00:14:45;;;;;;;36.43;19.53;;;-0.10;99.90;;;;;;5049023;28;20513;-71
2023/03/02 00:17:11;;;;;;;35.50;20.10;;;0.00;99.90;;;;;;5047232;28;20512;-71
2023/03/02 00:19:37;;;;;;;42.40;21.43;;;-0.10;99.90;;;;;;5049131;28;20179;-71
2023/03/02 00:22:03;;;;;;;37.58;20.63;;;-0.10;99.90;;;;;;5047682;28;20243;-71
2023/03/02 00:24:29;;;;;;;41.80;21.73;;;-0.20;99.90;;;;;;5049161;28;20265;-72
2023/03/02 00:26:55;;;;;;;37.57;20.40;;;-0.20;99.90;;;;;;5048144;28;20237;-71
2023/03/02 00:29:21;;;;;;;35.20;20.53;;;-0.20;99.90;;;;;;5049119;28;20845;-71
2023/03/02 00:31:46;;;;;;;38.77;20.77;;;-0.20;99.90;;;;;;5049702;28;20422;-71
2023/03/02 00:34:12;;;;;;;34.80;19.97;;;-0.20;99.90;;;;;;5049352;28;20682;-71
2023/03/02 00:36:37;;;;;;;31.97;18.03;;;-0.20;99.90;;;;;;5049130;28;20207;-71
2023/03/02 00:39:03;;;;;;;35.33;20.50;;;-0.20;99.90;;;;;;5049375;28;20194;-71
2023/03/02 00:41:29;;;;;;;37.77;20.17;;;-0.20;99.90;;;;;;5049250;28;20250;-71
2023/03/02 00:43:55;;;;;;;39.47;21.90;;;-0.20;99.90;;;;;;5049474;28;20202;-71
2023/03/02 00:46:23;;;;;;;37.40;21.83;;;-0.20;99.90;;;;;;5049080;28;20431;-70
2023/03/02 00:48:49;;;;;;;32.22;18.38;;;-0.20;99.90;;;;;;5048737;28;20579;-71
2023/03/02 00:51:15;;;;;;;34.05;19.83;;;-0.20;99.90;;;;;;5048755;28;20508;-71
2023/03/02 00:53:41;;;;;;;32.88;19.00;;;-0.20;99.90;;;;;;5030620;28;20230;-71
2023/03/02 00:56:08;;;;;;;38.30;20.92;;;-0.10;99.90;;;;;;5047108;28;20211;-71
2023/03/02 00:58:34;;;;;;;37.63;20.58;;;-0.30;99.90;;;;;;5047030;28;20300;-70
2023/03/02 01:01:09;;;;;;;35.47;20.17;;;-0.30;99.90;;;;;;5048689;28;20195;-71
2023/03/02 01:03:35;;;;;;;36.25;19.95;;;-0.30;99.90;;;;;;5047135;28;20482;-71
2023/03/02 01:06:02;;;;;;;33.72;20.00;;;-0.30;99.90;;;;;;5048581;28;20301;-71
2023/03/02 01:08:27;;;;;;;38.58;19.70;;;-0.30;99.90;;;;;;5048394;28;20207;-72
2023/03/02 01:10:53;;;;;;;41.20;22.00;;;-0.30;99.90;;;;;;5047107;28;20192;-72
2023/03/02 01:13:19;;;;;;;41.53;21.67;;;-0.30;99.90;;;;;;5048137;28;20326;-72
2023/03/02 01:15:45;;;;;;;37.43;22.50;;;-0.30;99.90;;;;;;5048340;28;20187;-72
2023/03/02 01:18:10;;;;;;;34.00;18.87;;;-0.30;99.90;;;;;;5048355;28;20451;-72
2023/03/02 01:20:36;;;;;;;41.30;19.90;;;-0.30;99.90;;;;;;5048533;28;20425;-72
2023/03/02 01:23:02;;;;;;;38.03;20.23;;;-0.30;99.90;;;;;;5048341;28;20274;-72
2023/03/02 01:25:28;;;;;;;33.63;20.60;;;-0.30;99.90;;;;;;5048360;28;20290;-72
2023/03/02 01:27:54;;;;;;;34.70;19.70;;;-0.30;99.90;;;;;;5048495;28;20434;-73
2023/03/02 01:30:19;;;;;;;37.47;20.30;;;-0.20;99.90;;;;;;5052510;28;20180;-72
2023/03/02 01:32:45;;;;;;;33.23;19.63;;;-0.30;99.90;;;;;;5052181;28;20198;-72
2023/03/02 01:35:11;;;;;;;37.40;21.07;;;-0.20;99.90;;;;;;5052308;28;20184;-72
2023/03/02 01:37:37;;;;;;;37.97;20.83;;;-0.10;99.90;;;;;;5050933;28;20212;-72
2023/03/02 01:40:05;;;;;;;32.40;18.90;;;-0.10;99.90;;;;;;5051253;28;20266;-72
2023/03/02 01:42:39;;;;;;;34.90;19.73;;;-0.10;99.90;;;;;;5052443;28;20216;-72
2023/03/02 01:45:25;;;;;;;34.22;19.60;;;-0.10;99.90;;;;;;5052362;28;20191;-72
2023/03/02 01:47:51;;;;;;;37.08;19.58;;;-0.10;99.90;;;;;;5050943;28;20255;-71
2023/03/02 01:50:22;;;;;;;36.60;20.40;;;-0.10;99.90;;;;;;5050773;28;20188;-73
2023/03/02 01:52:49;;;;;;;39.03;20.63;;;0.00;99.90;;;;;;5051915;28;20414;-71
2023/03/02 01:55:20;;;;;;;33.58;20.58;;;0.00;99.90;;;;;;5051960;28;20183;-71
2023/03/02 01:57:49;;;;;;;35.00;20.95;;;0.10;99.90;;;;;;5051664;28;20196;-72
2023/03/02 02:00:20;;;;;;;31.55;18.55;;;0.10;99.90;;;;;;5051606;28;20196;-71
2023/03/02 02:02:47;;;;;;;37.97;20.42;;;0.10;99.90;;;;;;5051563;28;20215;-71
2023/03/02 02:05:21;;;;;;;36.60;20.65;;;0.20;99.90;;;;;;5050234;28;20196;-72
2023/03/02 02:07:47;;;;;;;36.60;21.08;;;0.20;99.90;;;;;;5051262;28;20772;-72
2023/03/02 02:10:13;;;;;;;35.23;19.47;;;0.30;99.90;;;;;;5051616;28;20204;-72
2023/03/02 02:12:39;;;;;;;37.83;20.50;;;0.30;99.90;;;;;;5051238;28;20844;-72
2023/03/02 02:15:07;;;;;;;35.47;20.53;;;0.30;99.90;;;;;;5051338;28;20416;-71
2023/03/02 02:17:33;;;;;;;34.08;18.88;;;0.30;99.90;;;;;;5049536;28;20210;-72
2023/03/02 02:20:05;;;;;;;37.27;19.80;;;0.40;99.90;;;;;;5049546;28;20298;-72
2023/03/02 02:22:38;;;;;;;34.03;19.98;;;0.40;99.90;;;;;;5049654;28;20220;-72
2023/03/02 02:25:27;;;;;;;34.92;19.75;;;0.50;99.90;;;;;;5051130;28;20192;-72
2023/03/02 02:27:53;;;;;;;34.92;19.98;;;0.60;99.90;;;;;;5050834;28;20196;-72
2023/03/02 02:30:20;;;;;;;41.80;22.13;;;0.70;99.90;;;;;;5050983;28;20191;-72
2023/03/02 02:32:48;;;;;;;36.15;21.45;;;0.70;99.90;;;;;;5050781;28;20199;-72
2023/03/02 02:35:26;;;;;;;37.83;19.20;;;0.80;99.90;;;;;;5050642;28;20191;-71
2023/03/02 02:38:00;;;;;;;36.78;20.45;;;0.80;99.90;;;;;;5049407;28;20955;-71
2023/03/02 02:40:44;;;;;;;35.03;20.10;;;0.90;99.90;;;;;;5050155;28;20168;-71
2023/03/02 02:43:12;;;;;;;38.80;21.20;;;0.90;99.90;;;;;;5050615;28;20967;-72
2023/03/02 02:45:38;;;;;;;32.60;18.90;;;1.00;99.90;;;;;;5050666;28;20580;-72
2023/03/02 02:48:04;;;;;;;32.10;19.70;;;1.00;99.90;;;;;;5050499;28;20203;-72
2023/03/02 02:50:32;;;;;;;38.35;19.95;;;1.00;99.90;;;;;;5049287;28;20271;-72
2023/03/02 02:53:23;;;;;;;32.80;20.40;;;1.00;99.90;;;;;;5050395;28;20188;-72
2023/03/02 02:55:52;;;;;;;36.97;20.10;;;1.00;99.90;;;;;;5050481;28;20262;-71
2023/03/02 02:58:26;;;;;;;34.75;19.90;;;1.10;99.90;;;;;;5050264;28;20215;-72
2023/03/02 03:00:53;;;;;;;34.55;19.88;;;1.10;99.90;;;;;;5050143;28;20247;-72
2023/03/02 03:03:34;;;;;;;38.60;20.52;;;1.00;99.90;;;;;;5048691;28;20192;-72
2023/03/02 03:06:03;;;;;;;34.78;19.38;;;1.00;99.90;;;;;;5050405;28;20184;-71
2023/03/02 03:08:44;;;;;;;39.40;20.10;;;1.00;99.90;;;;;;5048618;28;20221;-72
2023/03/02 03:11:22;;;;;;;33.67;20.15;;;1.00;99.90;;;;;;5050264;28;20196;-72
2023/03/02 03:13:59;;;;;;;37.63;19.40;;;1.00;99.90;;;;;;5050180;28;20320;-72
2023/03/02 03:16:28;;;;;;;34.78;19.75;;;1.00;99.90;;;;;;5050300;28;20241;-72
2023/03/02 03:18:58;;;;;;;34.58;19.52;;;1.00;99.90;;;;;;5049920;28;20672;-72
2023/03/02 03:21:24;;;;;;;40.10;20.80;;;1.10;99.90;;;;;;5049897;28;20168;-72
2023/03/02 03:23:49;;;;;;;33.00;19.03;;;1.00;99.90;;;;;;5050083;28;20205;-71
2023/03/02 03:26:15;;;;;;;33.80;18.87;;;1.00;99.90;;;;;;5048645;28;20748;-72
2023/03/02 03:28:41;;;;;;;35.20;19.87;;;1.00;99.90;;;;;;5049345;28;20675;-72
2023/03/02 03:31:07;;;;;;;39.80;20.73;;;1.00;99.90;;;;;;5050356;28;20414;-72
2023/03/02 03:33:32;;;;;;;36.73;20.53;;;1.00;99.90;;;;;;5049621;28;20204;-72
2023/03/02 03:35:59;;;;;;;36.70;20.50;;;1.00;99.90;;;;;;5049916;28;20672;-72
2023/03/02 03:38:25;;;;;;;34.58;20.27;;;1.00;99.90;;;;;;5049848;28;20228;-72
2023/03/02 03:40:51;;;;;;;40.30;22.10;;;1.00;99.90;;;;;;5048382;28;20230;-72
2023/03/02 03:43:16;;;;;;;36.87;21.40;;;1.00;99.90;;;;;;5049402;28;20449;-72
2023/03/02 03:45:42;;;;;;;32.60;19.93;;;1.00;99.90;;;;;;5049774;28;20180;-71
2023/03/02 03:48:07;;;;;;;43.67;21.30;;;1.00;99.90;;;;;;5049547;28;20249;-71
2023/03/02 03:50:33;;;;;;;33.73;20.20;;;1.00;99.90;;;;;;5048172;28;20192;-71
2023/03/02 03:52:59;;;;;;;37.17;20.27;;;1.00;99.90;;;;;;5046970;28;20214;-71
2023/03/02 03:55:27;;;;;;;37.60;20.63;;;1.00;99.90;;;;;;5049591;28;20185;-72
2023/03/02 03:57:52;;;;;;;39.72;20.42;;;1.00;99.90;;;;;;5047600;28;20845;-72
2023/03/02 04:00:19;;;;;;;38.60;19.83;;;1.00;99.90;;;;;;5049319;28;20191;-71
2023/03/02 04:02:44;;;;;;;36.05;19.52;;;1.00;99.90;;;;;;5049093;28;20965;-71
2023/03/02 04:05:10;;;;;;;37.10;20.10;;;1.00;99.90;;;;;;5047878;28;20206;-71
2023/03/02 04:07:37;;;;;;;39.80;21.03;;;1.00;99.90;;;;;;5049179;28;20668;-72
2023/03/02 04:10:05;;;;;;;36.92;21.02;;;1.00;99.90;;;;;;5049179;28;20181;-72
2023/03/02 04:12:37;;;;;;;38.83;19.92;;;1.10;99.90;;;;;;5048907;28;20687;-72
2023/03/02 04:15:05;;;;;;;46.17;21.88;;;1.10;99.90;;;;;;5049413;28;20239;-72
2023/03/02 04:17:30;;;;;;;35.80;19.02;;;1.10;99.90;;;;;;5049163;28;20204;-72
2023/03/02 04:19:56;;;;;;;39.70;21.50;;;1.10;99.90;;;;;;5047765;28;20237;-72
2023/03/02 04:22:22;;;;;;;39.60;20.93;;;1.10;99.90;;;;;;5048898;28;20203;-72
2023/03/02 04:24:48;;;;;;;34.57;19.87;;;1.10;99.90;;;;;;5047437;28;20192;-71
2023/03/02 04:27:15;;;;;;;37.08;20.20;;;1.10;99.90;;;;;;5048727;28;20286;-71
2023/03/02 04:29:42;;;;;;;38.30;21.30;;;1.10;99.90;;;;;;5048873;28;20844;-71
2023/03/02 04:32:08;;;;;;;36.75;20.80;;;1.30;99.90;;;;;;5048720;28;20215;-71
2023/03/02 04:34:34;;;;;;;41.27;20.57;;;1.20;99.90;;;;;;5048723;28;20243;-72
2023/03/02 04:36:59;;;;;;;44.17;20.80;;;1.20;99.90;;;;;;5046861;28;20310;-71
2023/03/02 04:39:26;;;;;;;40.90;20.17;;;1.20;99.90;;;;;;5048842;28;20737;-71
2023/03/02 04:41:52;;;;;;;40.00;23.40;;;1.20;99.90;;;;;;5048668;28;20259;-71
2023/03/02 04:44:18;;;;;;;42.85;21.60;;;1.20;99.90;;;;;;5048618;28;20196;-72
2023/03/02 04:46:44;;;;;;;38.63;21.90;;;1.20;99.90;;;;;;5048724;28;20545;-71
2023/03/02 04:49:10;;;;;;;43.30;21.23;;;1.30;99.90;;;;;;5048648;28;20282;-72
2023/03/02 04:51:39;;;;;;;42.10;24.37;;;1.30;99.90;;;;;;5048374;28;20425;-71
2023/03/02 04:54:14;;;;;;;35.83;22.00;;;1.30;99.90;;;;;;5048788;28;20211;-72
2023/03/02 04:56:39;;;;;;;41.78;23.35;;;1.20;99.90;;;;;;5048471;28;20274;-73
2023/03/02 04:59:05;;;;;;;41.13;22.30;;;1.10;99.90;;;;;;5048472;28;20291;-72
2023/03/02 05:01:31;;;;;;;38.77;22.80;;;1.10;99.90;;;;;;5048380;28;20241;-72
2023/03/02 05:03:57;;;;;;;53.30;29.07;;;1.10;99.90;;;;;;5050424;28;20184;-72
2023/03/02 05:06:26;;;;;;;39.80;23.43;;;1.10;99.90;;;;;;5052476;28;20845;-71
2023/03/02 05:08:52;;;;;;;39.67;23.27;;;1.20;99.90;;;;;;5051380;28;20199;-71
2023/03/02 05:11:21;;;;;;;47.50;24.35;;;1.20;99.90;;;;;;5052440;28;20187;-72
2023/03/02 05:13:52;;;;;;;44.45;24.92;;;1.20;99.90;;;;;;5050760;28;20211;-72
2023/03/02 05:16:19;;;;;;;35.83;20.35;;;1.20;99.90;;;;;;5052433;28;20167;-71
2023/03/02 05:18:44;;;;;;;42.70;22.40;;;1.20;99.90;;;;;;5052335;28;20735;-72
2023/03/02 05:21:11;;;;;;;40.80;21.87;;;1.20;99.90;;;;;;5052360;28;20297;-72
2023/03/02 05:23:36;;;;;;;41.60;21.15;;;1.20;99.90;;;;;;5051012;28;20188;-71
2023/03/02 05:26:03;;;;;;;38.50;21.53;;;1.10;99.90;;;;;;5052528;28;20673;-71
2023/03/02 05:28:28;;;;;;;42.38;22.95;;;1.20;99.90;;;;;;5052557;28;20573;-72
2023/03/02 05:30:54;;;;;;;39.47;20.80;;;1.10;99.90;;;;;;5052615;28;20195;-72
2023/03/02 05:33:20;;;;;;;38.53;22.37;;;1.20;99.90;;;;;;5052630;28;20207;-72
2023/03/02 05:35:46;;;;;;;49.20;24.08;;;1.20;99.90;;;;;;5052422;28;20195;-73
2023/03/02 05:38:12;;;;;;;44.60;26.17;;;1.20;99.90;;;;;;5052654;28;20196;-72
2023/03/02 05:40:39;;;;;;;45.95;25.90;;;1.30;99.90;;;;;;5051257;28;20211;-72
2023/03/02 05:43:05;;;;;;;51.28;27.25;;;1.20;99.90;;;;;;5050960;28;20665;-72
2023/03/02 05:45:34;;;;;;;47.65;25.67;;;1.20;99.90;;;;;;5052435;28;20555;-71
2023/03/02 05:48:00;;;;;;;40.38;23.60;;;1.20;99.90;;;;;;5052051;28;20199;-71
2023/03/02 05:50:26;;;;;;;41.45;22.20;;;1.30;99.90;;;;;;5052506;28;20207;-70
2023/03/02 05:52:51;;;;;;;37.70;21.50;;;1.30;99.90;;;;;;5052329;28;20651;-70
2023/03/02 05:55:17;;;;;;;40.20;20.70;;;1.30;99.90;;;;;;5052147;28;20216;-71
2023/03/02 05:57:43;;;;;;;45.03;21.00;;;1.30;99.90;;;;;;5052077;28;20648;-71
2023/03/02 06:00:12;;;;;;;33.63;19.95;;;1.30;99.90;;;;;;5051802;28;20241;-71
2023/03/02 06:02:38;;;;;;;40.30;21.05;;;1.30;99.90;;;;;;5050723;28;20188;-72
2023/03/02 06:05:05;;;;;;;38.73;22.13;;;1.30;99.90;;;;;;5048669;28;20185;-72
2023/03/02 06:07:30;;;;;;;35.47;19.85;;;1.30;99.90;;;;;;5049042;28;20442;-73
2023/03/02 06:09:56;;;;;;;40.47;22.77;;;1.30;99.90;;;;;;5050368;28;20192;-72
2023/03/02 06:12:22;;;;;;;41.30;22.37;;;1.30;99.90;;;;;;5050460;28;20262;-72
2023/03/02 06:14:47;;;;;;;41.87;23.60;;;1.30;99.90;;;;;;5047516;28;20216;-72
2023/03/02 06:17:13;;;;;;;44.20;25.00;;;1.30;99.90;;;;;;5049964;28;20701;-72
2023/03/02 06:19:38;;;;;;;48.43;25.23;;;1.30;99.90;;;;;;5050206;28;20176;-72
2023/03/02 06:22:04;;;;;;;49.30;27.43;;;1.30;99.90;;;;;;5031928;28;20660;-72
2023/03/02 06:24:30;;;;;;;51.57;27.60;;;1.30;99.90;;;;;;5048723;28;20187;-72
2023/03/02 06:26:55;;;;;;;43.33;25.27;;;1.40;99.90;;;;;;5050371;28;20218;-72
2023/03/02 06:29:21;;;;;;;52.20;26.53;;;1.40;99.90;;;;;;5050483;28;20648;-71
2023/03/02 06:31:47;;;;;;;46.05;25.52;;;1.40;99.90;;;;;;5050602;28;20261;-72
2023/03/02 06:34:13;;;;;;;45.97;23.87;;;1.40;99.90;;;;;;5050545;28;20947;-72
2023/03/02 06:36:39;;;;;;;43.50;24.00;;;1.40;99.90;;;;;;5050387;28;20921;-73
2023/03/02 06:39:06;;;;;;;41.70;22.83;;;1.40;99.90;;;;;;5048611;28;21032;-73
2023/03/02 06:41:35;;;;;;;42.38;22.33;;;1.40;99.90;;;;;;5049728;28;20253;-72
2023/03/02 06:44:00;;;;;;;38.28;21.85;;;1.40;99.90;;;;;;5049404;28;20180;-73
2023/03/02 06:46:26;;;;;;;38.87;22.30;;;1.50;99.90;;;;;;5048205;28;20559;-73
2023/03/02 06:48:51;;;;;;;42.60;22.67;;;1.50;99.90;;;;;;5048000;28;20205;-72
2023/03/02 06:51:17;;;;;;;37.60;20.80;;;1.60;99.90;;;;;;5049520;28;20197;-73
2023/03/02 06:53:43;;;;;;;41.17;22.47;;;1.60;99.90;;;;;;5049176;28;20741;-72
2023/03/02 06:56:09;;;;;;;39.47;22.33;;;1.50;99.90;;;;;;5047777;28;20183;-72
2023/03/02 06:58:35;;;;;;;33.63;20.20;;;1.50;99.90;;;;;;5049160;28;20441;-71
2023/03/02 07:01:01;;;;;;;43.47;22.13;;;1.50;99.90;;;;;;5049262;28;20180;-72
2023/03/02 07:03:27;;;;;;;41.53;23.13;;;1.60;99.90;;;;;;5030804;28;20209;-72
2023/03/02 07:05:52;;;;;;;44.33;20.87;;;1.60;99.90;;;;;;5047903;28;20425;-72
2023/03/02 07:08:18;;;;;;;40.90;22.20;;;1.70;99.90;;;;;;5047580;28;20210;-73
2023/03/02 07:10:43;;;;;;;38.63;19.77;;;1.70;99.90;;;;;;5049288;28;20180;-73
2023/03/02 07:13:09;;;;;;;35.17;19.37;;;1.70;99.90;;;;;;5048840;28;20619;-73
2023/03/02 07:15:37;;;;;;;44.53;22.57;;;1.80;99.90;;;;;;5049013;28;20261;-73
2023/03/02 07:18:02;;;;;;;36.78;21.52;;;1.80;99.90;;;;;;5048761;28;20201;-73
2023/03/02 07:20:29;;;;;;;40.40;20.83;;;1.80;99.90;;;;;;5049024;28;20568;-73
2023/03/02 07:22:55;;;;;;;35.92;21.08;;;1.80;99.90;;;;;;5048730;28;20177;-73
2023/03/02 07:25:21;;;;;;;42.58;21.67;;;1.90;99.90;;;;;;5048723;28;20196;-73
2023/03/02 07:27:46;;;;;;;37.93;21.90;;;1.80;99.90;;;;;;5048620;28;20580;-73
2023/03/02 07:30:13;;;;;;;43.27;21.40;;;1.90;99.90;;;;;;5048378;28;20284;-73
2023/03/02 07:32:40;;;;;;;39.03;21.15;;;1.90;99.90;;;;;;5048184;28;20180;-73
2023/03/02 07:35:06;;;;;;;43.05;22.25;;;1.90;99.90;;;;;;5048145;28;20219;-72
2023/03/02 07:37:32;;;;;;;45.33;22.33;;;2.00;99.90;;;;;;5048418;28;20281;-73
2023/03/02 07:39:57;;;;;;;42.57;22.70;;;2.00;99.90;;;;;;5048413;28;20644;-73
2023/03/02 07:42:23;;;;;;;47.07;22.20;;;2.10;99.90;;;;;;5048199;28;20184;-72
2023/03/02 07:44:51;;;;;;;38.70;22.17;;;2.00;99.90;;;;;;5046696;28;20191;-73
2023/03/02 07:47:17;;;;;;;38.50;20.45;;;2.10;99.90;;;;;;5046559;28;20208;-72
2023/03/02 07:49:42;;;;;;;42.07;21.10;;;2.20;99.90;;;;;;5048271;28;20192;-72
2023/03/02 07:52:08;;;;;;;35.20;18.60;;;2.30;99.90;;;;;;5048178;28;20242;-73
2023/03/02 07:54:34;;;;;;;40.53;20.30;;;2.30;99.90;;;;;;5048157;28;20213;-72
2023/03/02 07:56:59;;;;;;;36.40;20.77;;;2.40;99.90;;;;;;5046484;28;20201;-72
2023/03/02 07:59:27;;;;;;;42.83;19.57;;;2.50;99.90;;;;;;5048269;28;20243;-72
2023/03/02 08:01:52;;;;;;;41.40;18.80;;;2.40;99.90;;;;;;5046596;28;20180;-73
2023/03/02 08:04:18;;;;;;;34.47;18.63;;;2.50;99.90;;;;;;5046296;28;20198;-72
2023/03/02 08:06:44;;;;;;;30.40;17.70;;;2.50;99.90;;;;;;5047616;28;20188;-73
2023/03/02 08:09:09;;;;;;;32.57;19.23;;;2.50;99.90;;;;;;5046504;28;20190;-72
2023/03/02 08:11:35;;;;;;;34.70;18.90;;;2.60;99.90;;;;;;5047749;28;20198;-73
2023/03/02 08:14:01;;;;;;;34.87;19.10;;;2.70;99.90;;;;;;5047682;28;20231;-72
2023/03/02 08:16:27;;;;;;;32.67;18.83;;;2.80;99.90;;;;;;5047842;28;20227;-73
2023/03/02 08:18:53;;;;;;;38.37;21.87;;;2.80;99.90;;;;;;5046438;28;20209;-72
2023/03/02 08:21:21;;;;;;;31.40;19.30;;;3.00;99.90;;;;;;5047904;28;20709;-73
2023/03/02 08:23:47;;;;;;;41.10;19.17;;;3.10;99.90;;;;;;5048112;28;20185;-72
2023/03/02 08:26:14;;;;;;;32.50;19.37;;;3.20;99.90;;;;;;5047845;28;20189;-73
2023/03/02 08:28:40;;;;;;;32.53;18.25;;;3.20;99.90;;;;;;5047693;28;20208;-73
2023/03/02 08:31:07;;;;;;;34.08;19.85;;;3.30;99.90;;;;;;5047756;28;20200;-72
2023/03/02 08:33:33;;;;;;;36.85;19.45;;;3.30;99.90;;;;;;5047844;28;20303;-73
2023/03/02 08:36:00;;;;;;;32.15;19.40;;;3.30;99.90;;;;;;5047893;28;20703;-73
2023/03/02 08:38:27;;;;;;;36.97;20.08;;;3.30;99.90;;;;;;5047614;28;20201;-73
2023/03/02 08:40:53;;;;;;;37.00;19.88;;;3.30;99.90;;;;;;5049529;28;20195;-73
2023/03/02 08:43:20;;;;;;;32.00;18.87;;;3.40;99.90;;;;;;5048410;28;20268;-73
2023/03/02 08:45:54;;;;;;;39.65;19.25;;;3.50;99.90;;;;;;5048206;28;20186;-74
2023/03/02 08:48:20;;;;;;;43.30;19.38;;;3.50;99.90;;;;;;5048136;28;20300;-73
2023/03/02 08:51:07;;;;;;;33.50;20.05;;;3.60;99.90;;;;;;5046575;28;20606;-73
2023/03/02 08:53:36;;;;;;;38.88;20.70;;;3.60;99.90;;;;;;5047902;28;20219;-73
2023/03/02 08:56:02;;;;;;;37.72;20.30;;;3.60;99.90;;;;;;5047978;28;20646;-73
2023/03/02 08:58:28;;;;;;;38.70;19.60;;;3.60;99.90;;;;;;5047950;28;20209;-73
2023/03/02 09:00:54;;;;;;;31.47;19.87;;;3.70;99.90;;;;;;5048810;28;20192;-72
2023/03/02 09:03:19;;;;;;;38.93;20.47;;;3.80;99.90;;;;;;5046618;28;20227;-73
2023/03/02 09:05:46;;;;;;;34.20;19.23;;;4.00;99.90;;;;;;5047708;28;20219;-73
2023/03/02 09:08:12;;;;;;;35.63;20.40;;;4.00;99.90;;;;;;5047568;28;20209;-73
2023/03/02 09:10:38;;;;;;;36.78;20.00;;;4.10;99.90;;;;;;5047662;28;20188;-73
2023/03/02 09:13:04;;;;;;;32.70;18.98;;;4.10;99.90;;;;;;5047557;28;20251;-73
2023/03/02 09:15:29;;;;;;;34.43;19.27;;;4.10;99.90;;;;;;5046557;28;20658;-72
2023/03/02 09:17:55;;;;;;;38.10;20.30;;;4.10;99.90;;;;;;5047482;28;20473;-73
2023/03/02 09:20:21;;;;;;;41.55;20.75;;;4.20;99.90;;;;;;5047550;28;20185;-73
2023/03/02 09:22:49;;;;;;;28.80;18.10;;;4.30;99.90;;;;;;5048033;28;20183;-73
2023/03/02 09:25:19;;;;;;;33.53;19.27;;;4.30;99.90;;;;;;5048018;28;20176;-72
2023/03/02 09:27:45;;;;;;;35.10;18.77;;;4.40;99.90;;;;;;5030303;28;20211;-73
2023/03/02 09:30:12;;;;;;;33.92;20.08;;;4.40;99.90;;;;;;5048323;28;20599;-73
2023/03/02 09:32:38;;;;;;;38.95;20.90;;;4.40;99.90;;;;;;5048004;28;20237;-73
2023/03/02 09:35:04;;;;;;;37.00;20.23;;;4.40;99.90;;;;;;5047593;28;20713;-73
2023/03/02 09:37:30;;;;;;;35.50;19.67;;;4.40;99.90;;;;;;5047129;28;20854;-72
2023/03/02 09:39:55;;;;;;;32.70;19.87;;;4.50;99.90;;;;;;5045881;28;20190;-72
2023/03/02 09:42:40;;;;;;;38.47;19.37;;;4.60;99.90;;;;;;5046931;28;20285;-72
2023/03/02 09:45:28;;;;;;;36.60;20.88;;;4.60;99.90;;;;;;5047240;28;20178;-72
2023/03/02 09:48:24;;;;;;;34.15;19.70;;;4.60;99.90;;;;;;5047038;28;20217;-72
2023/03/02 09:51:01;;;;;;;37.55;20.10;;;4.80;99.90;;;;;;5048651;28;20170;-71
2023/03/02 09:53:35;;;;;;;41.50;21.90;;;4.90;99.90;;;;;;5050648;28;20666;-72
2023/03/02 09:56:02;;;;;;;35.33;19.83;;;5.00;99.90;;;;;;5050784;28;20323;-73
2023/03/02 09:58:34;;;;;;;33.87;19.37;;;5.10;99.90;;;;;;5050735;28;21097;-73
2023/03/02 10:01:03;;;;;;;32.40;19.92;;;5.30;99.90;;;;;;5049477;28;20429;-73
2023/03/02 10:03:43;;;;;;;36.25;21.10;;;5.30;99.90;;;;;;5050358;28;20183;-73
2023/03/02 10:06:09;;;;;;;32.83;19.50;;;5.50;99.90;;;;;;5050334;28;20187;-73
2023/03/02 10:08:36;;;;;;;36.33;19.27;;;5.70;99.90;;;;;;5048927;28;20439;-73
2023/03/02 10:11:33;;;;;;;39.33;20.70;;;5.80;99.90;;;;;;5048895;28;20199;-73
2023/03/02 10:14:11;;;;;;;37.23;22.37;;;6.10;99.90;;;;;;5045900;28;20223;-72
2023/03/02 10:16:54;;;;;;;33.23;20.50;;;6.80;99.90;;;;;;5050256;28;20738;-72
2023/03/02 10:19:40;;;;;;;40.00;21.47;;;7.10;99.90;;;;;;5049953;28;20413;-72
2023/03/02 10:22:34;;;;;;;39.47;21.50;;;7.00;99.90;;;;;;5048549;28;20507;-72
2023/03/02 10:25:25;;;;;;;41.87;21.53;;;7.30;99.90;;;;;;5049820;28;20410;-72
2023/03/02 10:28:12;;;;;;;39.13;20.37;;;7.30;99.90;;;;;;5047087;28;20561;-72
2023/03/02 10:30:38;;;;;;;31.83;20.47;;;7.30;99.90;;;;;;5049822;28;20414;-72
2023/03/02 10:33:32;;;;;;;38.80;21.80;;;7.10;99.90;;;;;;5048322;28;20836;-72
2023/03/02 10:35:59;;;;;;;33.80;19.50;;;7.30;99.90;;;;;;5046310;28;20470;-72
2023/03/02 10:38:28;;;;;;;38.97;20.80;;;7.30;99.90;;;;;;5048567;28;21059;-73
2023/03/02 10:41:02;;;;;;;32.40;20.70;;;7.30;99.90;;;;;;5049767;28;20846;-73
2023/03/02 10:43:34;;;;;;;38.67;20.33;;;7.30;99.90;;;;;;5048223;28;20890;-72
2023/03/02 10:46:08;;;;;;;38.60;21.00;;;7.50;99.90;;;;;;5049492;28;20414;-72
2023/03/02 10:49:29;;;;;;;37.40;20.73;;;7.40;99.90;;;;;;5050170;28;20434;-72
2023/03/02 10:51:56;;;;;;;33.23;20.90;;;7.40;99.90;;;;;;5038483;28;20857;-72
2023/03/02 10:54:24;;;;;;;31.60;20.90;;;7.50;99.90;;;;;;5049874;28;20985;-72
2023/03/02 10:56:54;;;;;;;32.33;21.53;;;7.50;99.90;;;;;;5048347;28;20422;-72
2023/03/02 10:59:39;;;;;;;35.67;21.07;;;7.60;99.90;;;;;;5049528;28;21347;-73
2023/03/02 11:02:13;;;;;;;36.40;20.93;;;7.60;99.90;;;;;;5049300;28;20893;-73
2023/03/02 11:04:39;;;;;;;33.97;20.40;;;7.50;99.50;;;;;;5049834;28;20448;-73
2023/03/02 11:07:11;;;;;;;34.30;20.83;;;7.50;99.90;;;;;;5048708;28;21025;-73
2023/03/02 11:09:38;;;;;;;33.27;20.00;;;7.50;99.90;;;;;;5048526;28;20184;-73
2023/03/02 11:12:11;;;;;;;32.60;20.07;;;7.50;99.50;;;;;;5049988;28;20536;-73
2023/03/02 11:14:37;;;;;;;32.90;20.20;;;7.50;99.90;;;;;;5049694;28;20471;-73
2023/03/02 11:17:30;;;;;;;40.13;20.67;;;7.60;99.90;;;;;;5048249;28;20442;-73
2023/03/02 11:19:56;;;;;;;34.70;20.93;;;7.60;99.60;;;;;;5049464;28;20184;-73
2023/03/02 11:22:31;;;;;;;38.63;21.27;;;7.70;99.90;;;;;;5048077;28;20973;-73
2023/03/02 11:24:59;;;;;;;35.03;19.93;;;7.90;99.30;;;;;;5049368;28;20406;-73
2023/03/02 11:27:28;;;;;;;36.30;22.37;;;8.10;98.20;;;;;;5049454;28;20442;-72
2023/03/02 11:30:03;;;;;;;39.43;20.87;;;8.00;97.70;;;;;;5047936;28;20422;-72
2023/03/02 11:32:38;;;;;;;34.43;20.40;;;8.00;97.60;;;;;;5049360;28;20410;-72
2023/03/02 11:35:13;;;;;;;31.60;20.03;;;8.10;98.00;;;;;;5047374;28;20508;-72
2023/03/02 11:37:54;;;;;;;33.47;21.27;;;8.60;98.40;;;;;;5049177;28;20434;-73
2023/03/02 11:40:35;;;;;;;38.70;20.83;;;9.90;98.10;;;;;;5048788;28;20414;-72
2023/03/02 11:43:03;;;;;;;33.43;20.30;;;10.00;92.10;;;;;;5048825;28;20476;-73
2023/03/02 11:45:33;;;;;;;30.90;20.77;;;10.40;93.20;;;;;;5048578;28;20414;-73
2023/03/02 11:48:07;;;;;;;31.70;19.47;;;11.20;90.80;;;;;;5048414;28;20438;-73
2023/03/02 11:50:49;;;;;;;34.97;21.43;;;11.20;89.40;;;;;;5048373;28;20906;-73
2023/03/02 11:53:18;;;;;;;33.93;21.50;;;11.70;88.80;;;;;;5048273;28;20417;-72
2023/03/02 11:55:47;;;;;;;27.60;19.00;;;12.20;86.70;;;;;;5048166;28;20421;-72
2023/03/02 11:58:26;;;;;;;34.27;21.03;;;12.20;84.70;;;;;;5046603;28;20439;-72
2023/03/02 12:00:53;;;;;;;35.23;21.20;;;12.30;83.20;;;;;;5047829;28;20505;-73
2023/03/02 12:03:36;;;;;;;29.63;20.10;;;12.20;84.60;;;;;;5046680;28;20417;-72
2023/03/02 12:06:04;;;;;;;30.70;20.93;;;12.60;83.00;;;;;;5047937;28;20405;-73
2023/03/02 12:08:37;;;;;;;30.23;20.60;;;13.20;80.80;;;;;;5046433;28;20439;-73
2023/03/02 12:11:15;;;;;;;36.00;22.13;;;13.40;78.80;;;;;;5046504;28;20435;-73
2023/03/02 12:13:48;;;;;;;37.57;19.50;;;13.80;76.70;;;;;;5047121;28;20986;-73
2023/03/02 12:16:40;;;;;;;36.93;20.10;;;13.80;74.70;;;;;;5047798;28;20413;-72
2023/03/02 12:19:27;;;;;;;37.93;21.80;;;13.60;75.30;;;;;;5046831;28;20439;-73
2023/03/02 12:22:01;;;;;;;38.47;23.00;;;13.60;75.30;;;;;;5047710;28;20469;-73
2023/03/02 12:24:32;;;;;;;32.47;21.90;;;13.50;74.00;;;;;;5045983;28;20459;-73
2023/03/02 12:27:11;;;;;;;30.73;22.20;;;13.70;75.40;;;;;;5047560;28;20440;-72
2023/03/02 12:29:49;;;;;;;33.83;22.03;;;13.90;74.00;;;;;;5047332;28;20419;-72
2023/03/02 12:32:17;;;;;;;38.77;22.20;;;13.30;72.50;;;;;;5047663;28;20495;-73
2023/03/02 12:35:17;;;;;;;31.13;20.70;;;12.60;74.10;;;;;;5047567;28;20459;-73
2023/03/02 12:37:59;;;;;;;32.80;22.47;;;12.30;75.40;;;;;;5047334;28;20817;-72
2023/03/02 12:40:34;;;;;;;42.57;26.50;;;12.00;77.00;;;;;;5047513;28;20419;-73
2023/03/02 12:43:27;;;;;;;34.40;22.00;;;12.40;77.70;;;;;;5047445;28;20415;-73
2023/03/02 12:46:17;;;;;;;32.20;22.67;;;12.60;77.80;;;;;;5047521;28;20453;-73
2023/03/02 12:48:44;;;;;;;32.00;21.40;;;12.80;74.50;;;;;;5046926;28;20435;-73